Alpena, MI

2:47 AM EDT on May 27, 2015 (GMT -0400)
Lafarge Presque Isle Dock | | Change Station
CLOSE
Current Station
Personal Weather Station
Location: Presque Isle, MI
Elevation: 585 ft
Nearby Weather Stations

Elev 585 ft 45.30 °N, 83.42 °W | Updated 1 second ago

Scattered Clouds
Scattered Clouds
65.3 °F
Feels Like 65.3 °F
N
13.0
Wind Variable Wind from SSE
Gusts 14.0 mph

Today
High -- | Low -- °F
--% Chance of Precip.
Yesterday
High -- | Low -- °F
Precip. -- in
5:52 AM 9:08 PM
Waxing Gibbous, 65% visible
Pressure 29.75 in
Visibility 10.0 miles
Clouds Scattered Clouds 2600 ft
Dew Point 64 °F
Humidity 94%
Rainfall 0.00 in
Snow Depth Not available.
UV 0 out of 12
Pollen 9.60 out of 12
Air Quality Not available.
Flu Activity Sporadic
SPECI KAPN 270619Z AUTO 21010KT 10SM SCT026 19/18 A2975 RMK AO2 T01940178

More Conditions Fewer Conditions

Pressure 29.75 in
Visibility 10.0 miles
Clouds Scattered Clouds 2600 ft
Dew Point 64 °F
Humidity 94%
Rainfall 0.00 in
Snow Depth Not available.
UV 0 out of 12
Pollen 9.60 out of 12
Air Quality Not available.
Flu Activity Sporadic
SPECI KAPN 270619Z AUTO 21010KT 10SM SCT026 19/18 A2975 RMK AO2 T01940178

More Conditions Fewer Conditions

Nowcast | as of 1:00 am EDT on May 27, 2015

At 2 am...partly cloudy. Areas of fog. Slight chance of showers. Temperature 64. South winds 7 mph. At 4 am...partly cloudy. Areas of fog. Slight chance of showers. Temperature 62. South winds 5 mph. At 6 am...partly cloudy. Areas of fog. Slight chance of showers. Temperature 61. Southwest winds 6 mph. At 8 am...partly cloudy. Areas of fog. Slight chance of showers. Temperature 65. Southwest winds 9 mph.

×

10-Day Weather Forecast

Almanac

Astronomy

May. 27, 2015 Rise Set
Actual Time
Civil Twilight
Nautical Twilight
Astronomical Twilight
Moon
Length of Visible Light
Length of Day
Tomorrow will be .
, % of the Moon is Illuminated

Today's Extremes

State Highs State Lows

Community

WunderPhotos

Upload Photos

1,824,626 photos uploaded!

WunderBlogs® & News

Nearby

Air Quality

  Air Quality AQ Index Pollutant
Not available.

Snow Depth

Station Depth Elevation

Earthquake Activity

City Distance Mag. Time & Date
Minimum magnitude displayed is 2.5.

Coastal Water Temperatures

Place Temperature

Stations

Nearby Weather Stations

Station Location Temp. Windchill Dew Point Humidity Wind Precip. Elev Updated Type